Data Viewer
| City | State | Eastern Time | Source | Temp | DewPt | RH | BP | 5 Min Precip | Wind Speed | Wind Dir | 5 Min Wind Max | 5 Min Wind Max Dir |
|---|---|---|---|---|---|---|---|---|---|---|---|---|
| Oswego Lake | NJ | 2026-05-06 04:35 | Mesonet | 60 | 57 | 89 | 29.86 | 0.00 | 4 | SSE | 12 | S |
| Oswego Lake | NJ | 2026-05-06 20:25 | Mesonet | 67 | 61 | 82 | 29.77 | 0.00 | 4 | SW | 4 | SW |
| Oswego Lake | NJ | 2026-05-06 20:55 | Mesonet | 65 | 61 | 86 | 29.78 | 0.00 | 3 | SSW | 5 | SSW |
| Oswego Lake | NJ | 2026-05-06 20:50 | Mesonet | 65 | 61 | 85 | 29.78 | 0.00 | 5 | SSW | 5 | SW |
| Oswego Lake | NJ | 2026-05-06 20:45 | Mesonet | 66 | 61 | 84 | 29.77 | 0.00 | 3 | S | 4 | SSW |
| Oswego Lake | NJ | 2026-05-06 20:40 | Mesonet | 66 | 61 | 84 | 29.77 | 0.00 | 3 | SSW | 6 | SSW |
| Oswego Lake | NJ | 2026-05-06 20:35 | Mesonet | 66 | 61 | 83 | 29.77 | 0.00 | 3 | S | 6 | SSW |
| Oswego Lake | NJ | 2026-05-06 20:30 | Mesonet | 66 | 61 | 83 | 29.77 | 0.00 | 4 | SSW | 5 | SW |
| Oswego Lake | NJ | 2026-05-06 20:20 | Mesonet | 67 | 61 | 81 | 29.77 | 0.00 | 3 | SSW | 6 | SW |
| Oswego Lake | NJ | 2026-05-06 21:05 | Mesonet | 65 | 61 | 87 | 29.79 | 0.00 | 3 | SSW | 5 | SSW |
| Oswego Lake | NJ | 2026-05-06 20:15 | Mesonet | 67 | 61 | 80 | 29.77 | 0.00 | 4 | SSW | 8 | SSW |
| Oswego Lake | NJ | 2026-05-06 20:10 | Mesonet | 67 | 61 | 79 | 29.76 | 0.00 | 4 | S | 7 | S |
| Oswego Lake | NJ | 2026-05-06 20:05 | Mesonet | 68 | 61 | 79 | 29.77 | 0.00 | 5 | SSW | 7 | S |
| Oswego Lake | NJ | 2026-05-06 20:00 | Mesonet | 68 | 61 | 79 | 29.76 | 0.00 | 6 | SW | 8 | SSW |
| Oswego Lake | NJ | 2026-05-06 19:55 | Mesonet | 68 | 61 | 78 | 29.77 | 0.00 | 5 | SW | 7 | SW |
| Oswego Lake | NJ | 2026-05-06 19:50 | Mesonet | 68 | 61 | 77 | 29.77 | 0.00 | 4 | SW | 7 | SW |
| Oswego Lake | NJ | 2026-05-06 21:00 | Mesonet | 65 | 61 | 86 | 29.79 | 0.00 | 4 | SSW | 5 | SSW |
| Oswego Lake | NJ | 2026-05-06 21:10 | Mesonet | 65 | 61 | 86 | 29.79 | 0.00 | 4 | SW | 5 | SSW |
| Oswego Lake | NJ | 2026-05-06 19:40 | Mesonet | 69 | 61 | 75 | 29.76 | 0.00 | 8 | WSW | 11 | WSW |
| Oswego Lake | NJ | 2026-05-06 21:55 | Mesonet | 65 | 61 | 86 | 29.78 | 0.00 | 2 | S | 5 | S |
| Oswego Lake | NJ | 2026-05-06 22:25 | Mesonet | 64 | 61 | 89 | 29.79 | 0.00 | 2 | SSW | 4 | SSW |
| Oswego Lake | NJ | 2026-05-06 22:20 | Mesonet | 64 | 61 | 89 | 29.79 | 0.00 | 3 | S | 3 | SSW |
| Oswego Lake | NJ | 2026-05-06 22:15 | Mesonet | 64 | 61 | 88 | 29.79 | 0.00 | 2 | SW | 3 | SW |
| Oswego Lake | NJ | 2026-05-06 22:10 | Mesonet | 65 | 61 | 88 | 29.78 | 0.00 | 3 | SW | 3 | SW |
| Oswego Lake | NJ | 2026-05-06 22:05 | Mesonet | 65 | 61 | 87 | 29.78 | 0.00 | 3 | S | 5 | S |
| Oswego Lake | NJ | 2026-05-06 22:00 | Mesonet | 65 | 61 | 87 | 29.77 | 0.00 | 4 | S | 5 | S |
| Oswego Lake | NJ | 2026-05-06 21:50 | Mesonet | 65 | 61 | 87 | 29.78 | 0.00 | 4 | S | 5 | S |
| Oswego Lake | NJ | 2026-05-06 21:15 | Mesonet | 65 | 61 | 86 | 29.79 | 0.00 | 3 | SW | 5 | SW |
| Oswego Lake | NJ | 2026-05-06 21:45 | Mesonet | 65 | 61 | 87 | 29.79 | 0.00 | 3 | SSW | 5 | SSW |
| Oswego Lake | NJ | 2026-05-06 21:40 | Mesonet | 65 | 61 | 86 | 29.80 | 0.00 | 4 | SW | 5 | SSW |
| Oswego Lake | NJ | 2026-05-06 21:35 | Mesonet | 65 | 61 | 86 | 29.79 | 0.00 | 4 | SW | 5 | SSW |
| Oswego Lake | NJ | 2026-05-06 21:30 | Mesonet | 65 | 61 | 86 | 29.79 | 0.00 | 5 | SSW | 5 | S |
| Oswego Lake | NJ | 2026-05-06 21:25 | Mesonet | 65 | 61 | 86 | 29.79 | 0.00 | 4 | SSW | 5 | SSW |
| Oswego Lake | NJ | 2026-05-06 21:20 | Mesonet | 65 | 61 | 86 | 29.79 | 0.00 | 2 | SSW | 5 | SW |
| Oswego Lake | NJ | 2026-05-06 19:45 | Mesonet | 69 | 61 | 76 | 29.76 | 0.00 | 3 | SSW | 9 | SW |
| Oswego Lake | NJ | 2026-05-06 19:35 | Mesonet | 69 | 61 | 75 | 29.76 | 0.00 | 5 | SW | 14 | SSW |
| Oswego Lake | NJ | 2026-05-06 22:35 | Mesonet | 64 | 61 | 89 | 29.78 | 0.00 | 3 | SSW | 3 | SSW |
| Oswego Lake | NJ | 2026-05-06 17:25 | Mesonet | 71 | 61 | 71 | 29.75 | 0.00 | 15 | SW | 18 | SW |
| Oswego Lake | NJ | 2026-05-06 17:55 | Mesonet | 71 | 61 | 71 | 29.75 | 0.00 | 6 | WSW | 13 | SSW |
| Oswego Lake | NJ | 2026-05-06 17:50 | Mesonet | 71 | 61 | 71 | 29.75 | 0.00 | 11 | SW | 15 | WSW |
| Oswego Lake | NJ | 2026-05-06 17:45 | Mesonet | 71 | 61 | 71 | 29.75 | 0.00 | 9 | WSW | 14 | SW |
| Oswego Lake | NJ | 2026-05-06 17:40 | Mesonet | 71 | 61 | 71 | 29.74 | 0.00 | 10 | SW | 13 | WSW |
| Oswego Lake | NJ | 2026-05-06 17:35 | Mesonet | 70 | 61 | 71 | 29.75 | 0.00 | 7 | WSW | 16 | WSW |
| Oswego Lake | NJ | 2026-05-06 17:30 | Mesonet | 70 | 60 | 71 | 29.74 | 0.00 | 4 | SW | 16 | SW |
| Oswego Lake | NJ | 2026-05-06 17:20 | Mesonet | 71 | 61 | 71 | 29.75 | 0.00 | 11 | WSW | 14 | SW |
| Oswego Lake | NJ | 2026-05-06 18:05 | Mesonet | 72 | 61 | 70 | 29.75 | 0.00 | 13 | SW | 17 | SW |
| Oswego Lake | NJ | 2026-05-06 17:15 | Mesonet | 71 | 60 | 70 | 29.74 | 0.00 | 12 | SW | 18 | WSW |
| Oswego Lake | NJ | 2026-05-06 17:10 | Mesonet | 71 | 60 | 70 | 29.74 | 0.00 | 9 | W | 20 | WSW |
| Oswego Lake | NJ | 2026-05-06 17:05 | Mesonet | 71 | 60 | 70 | 29.74 | 0.00 | 15 | WSW | 21 | WSW |
| Oswego Lake | NJ | 2026-05-06 17:00 | Mesonet | 71 | 60 | 69 | 29.74 | 0.00 | 8 | SW | 24 | WSW |
| Oswego Lake | NJ | 2026-05-06 16:55 | Mesonet | 71 | 60 | 69 | 29.74 | 0.00 | 12 | SW | 23 | WSW |
| Oswego Lake | NJ | 2026-05-06 16:50 | Mesonet | 71 | 60 | 70 | 29.73 | 0.00 | 12 | SSW | 23 | WSW |
| Oswego Lake | NJ | 2026-05-06 18:00 | Mesonet | 71 | 61 | 70 | 29.75 | 0.00 | 11 | WSW | 13 | SW |
| Oswego Lake | NJ | 2026-05-06 18:10 | Mesonet | 72 | 61 | 69 | 29.75 | 0.00 | 15 | SW | 15 | SW |
| Oswego Lake | NJ | 2026-05-06 19:30 | Mesonet | 69 | 61 | 75 | 29.76 | 0.00 | 5 | SW | 11 | SSW |
| Oswego Lake | NJ | 2026-05-06 18:55 | Mesonet | 70 | 61 | 72 | 29.76 | 0.00 | 9 | WSW | 14 | W |
| Oswego Lake | NJ | 2026-05-06 19:25 | Mesonet | 70 | 61 | 74 | 29.76 | 0.00 | 8 | SSW | 13 | SW |
| Oswego Lake | NJ | 2026-05-06 19:20 | Mesonet | 70 | 61 | 74 | 29.76 | 0.00 | 6 | SW | 10 | SSW |
| Oswego Lake | NJ | 2026-05-06 19:15 | Mesonet | 70 | 61 | 73 | 29.76 | 0.00 | 7 | SW | 15 | SW |
| Oswego Lake | NJ | 2026-05-06 19:10 | Mesonet | 70 | 61 | 73 | 29.76 | 0.00 | 14 | WSW | 14 | WSW |
| Oswego Lake | NJ | 2026-05-06 19:05 | Mesonet | 70 | 61 | 73 | 29.76 | 0.00 | 7 | WSW | 13 | SW |
| Oswego Lake | NJ | 2026-05-06 19:00 | Mesonet | 70 | 61 | 72 | 29.76 | 0.00 | 8 | W | 15 | SW |
| Oswego Lake | NJ | 2026-05-06 18:50 | Mesonet | 70 | 61 | 72 | 29.76 | 0.00 | 15 | SW | 16 | SW |
| Oswego Lake | NJ | 2026-05-06 18:15 | Mesonet | 72 | 61 | 69 | 29.75 | 0.00 | 6 | W | 16 | WSW |
| Oswego Lake | NJ | 2026-05-06 18:45 | Mesonet | 71 | 61 | 71 | 29.75 | 0.00 | 9 | SW | 17 | SW |
| Oswego Lake | NJ | 2026-05-06 18:40 | Mesonet | 71 | 61 | 70 | 29.75 | 0.00 | 15 | WSW | 17 | WSW |
| Oswego Lake | NJ | 2026-05-06 18:35 | Mesonet | 71 | 61 | 70 | 29.75 | 0.00 | 11 | WNW | 18 | SW |
| Oswego Lake | NJ | 2026-05-06 18:30 | Mesonet | 71 | 61 | 70 | 29.75 | 0.00 | 14 | SW | 15 | SW |
| Oswego Lake | NJ | 2026-05-06 18:25 | Mesonet | 72 | 61 | 69 | 29.75 | 0.00 | 9 | WSW | 15 | WSW |
| Oswego Lake | NJ | 2026-05-06 18:20 | Mesonet | 72 | 61 | 69 | 29.75 | 0.00 | 10 | WSW | 19 | SW |
| Oswego Lake | NJ | 2026-05-06 22:30 | Mesonet | 65 | 61 | 88 | 29.79 | 0.00 | 3 | SSW | 3 | SSW |
| Oswego Lake | NJ | 2026-05-06 22:40 | Mesonet | 64 | 61 | 89 | 29.78 | 0.00 | 2 | SSW | 3 | SSW |
| Oswego Lake | NJ | 2026-05-06 16:40 | Mesonet | 71 | 60 | 69 | 29.73 | 0.00 | 6 | SW | 16 | W |
| Oswego Lake | NJ | 2026-05-07 02:30 | Mesonet | 56 | 56 | 99 | 29.79 | 0.00 | 6 | NNW | 9 | N |
| Oswego Lake | NJ | 2026-05-07 03:00 | Mesonet | 54 | 53 | 97 | 29.81 | 0.02 | 6 | NNW | 16 | N |
| Oswego Lake | NJ | 2026-05-07 02:55 | Mesonet | 55 | 54 | 97 | 29.80 | 0.00 | 2 | NE | 13 | N |
| Oswego Lake | NJ | 2026-05-07 02:50 | Mesonet | 55 | 54 | 98 | 29.79 | 0.01 | 6 | N | 17 | NW |
| Oswego Lake | NJ | 2026-05-07 02:45 | Mesonet | 56 | 55 | 99 | 29.80 | 0.00 | 6 | NNW | 13 | NW |
| Oswego Lake | NJ | 2026-05-07 02:40 | Mesonet | 56 | 56 | 100 | 29.79 | 0.00 | 4 | NNW | 10 | N |
| Oswego Lake | NJ | 2026-05-07 02:35 | Mesonet | 56 | 56 | 99 | 29.79 | 0.00 | 4 | N | 10 | NNW |
| Oswego Lake | NJ | 2026-05-07 02:25 | Mesonet | 56 | 56 | 98 | 29.78 | 0.01 | 6 | NNE | 11 | N |
| Oswego Lake | NJ | 2026-05-07 03:10 | Mesonet | 53 | 52 | 96 | 29.80 | 0.03 | 6 | NNE | 13 | NNE |
| Oswego Lake | NJ | 2026-05-07 02:20 | Mesonet | 56 | 56 | 97 | 29.80 | 0.00 | 4 | NNE | 11 | NW |
| Oswego Lake | NJ | 2026-05-07 02:15 | Mesonet | 57 | 56 | 96 | 29.80 | 0.03 | 9 | NNW | 10 | N |
| Oswego Lake | NJ | 2026-05-07 02:10 | Mesonet | 58 | 56 | 93 | 29.77 | 0.01 | 7 | NNE | 10 | N |
| Oswego Lake | NJ | 2026-05-07 02:05 | Mesonet | 58 | 56 | 91 | 29.79 | 0.00 | 8 | N | 13 | N |
| Oswego Lake | NJ | 2026-05-07 02:00 | Mesonet | 59 | 56 | 89 | 29.80 | 0.00 | 7 | N | 13 | NNE |
| Oswego Lake | NJ | 2026-05-07 01:55 | Mesonet | 59 | 55 | 87 | 29.79 | 0.00 | 5 | N | 13 | N |
| Oswego Lake | NJ | 2026-05-07 03:05 | Mesonet | 54 | 52 | 96 | 29.82 | 0.05 | 11 | NNW | 15 | NNW |
| Oswego Lake | NJ | 2026-05-07 03:15 | Mesonet | 52 | 52 | 97 | 29.81 | 0.00 | 13 | NNW | 15 | NW |
| Oswego Lake | NJ | 2026-05-07 01:45 | Mesonet | 60 | 55 | 84 | 29.78 | 0.00 | 5 | NNW | 13 | N |
| Oswego Lake | NJ | 2026-05-07 04:00 | Mesonet | 51 | 50 | 97 | 29.81 | 0.00 | 8 | N | 9 | NW |
| Oswego Lake | NJ | 2026-05-07 04:30 | Mesonet | 51 | 50 | 97 | 29.81 | 0.00 | 7 | NNW | 9 | N |
| Oswego Lake | NJ | 2026-05-07 04:25 | Mesonet | 51 | 50 | 97 | 29.82 | 0.00 | 5 | N | 10 | NNW |
| Oswego Lake | NJ | 2026-05-07 04:20 | Mesonet | 51 | 50 | 97 | 29.82 | 0.00 | 2 | N | 11 | E |
| Oswego Lake | NJ | 2026-05-07 04:15 | Mesonet | 51 | 50 | 97 | 29.82 | 0.00 | 9 | N | 12 | N |
| Oswego Lake | NJ | 2026-05-07 04:10 | Mesonet | 51 | 50 | 97 | 29.82 | 0.00 | 7 | NW | 11 | NNW |
| Oswego Lake | NJ | 2026-05-07 04:05 | Mesonet | 51 | 50 | 97 | 29.82 | 0.00 | 8 | NW | 10 | NNW |
| Oswego Lake | NJ | 2026-05-07 03:55 | Mesonet | 51 | 50 | 97 | 29.82 | 0.00 | 5 | NW | 13 | NNW |
| Oswego Lake | NJ | 2026-05-07 03:20 | Mesonet | 52 | 52 | 98 | 29.81 | 0.00 | 12 | NNW | 14 | N |
| Oswego Lake | NJ | 2026-05-07 03:50 | Mesonet | 51 | 51 | 98 | 29.81 | 0.00 | 8 | N | 12 | N |
| Oswego Lake | NJ | 2026-05-07 03:45 | Mesonet | 51 | 51 | 99 | 29.81 | 0.00 | 8 | N | 9 | N |
| Oswego Lake | NJ | 2026-05-07 03:40 | Mesonet | 51 | 51 | 99 | 29.81 | 0.00 | 7 | N | 14 | NNW |
| Oswego Lake | NJ | 2026-05-07 03:35 | Mesonet | 51 | 51 | 99 | 29.81 | 0.00 | 8 | NW | 16 | NNW |
| Oswego Lake | NJ | 2026-05-07 03:30 | Mesonet | 52 | 51 | 99 | 29.80 | 0.00 | 15 | NNW | 16 | NW |
| Oswego Lake | NJ | 2026-05-07 03:25 | Mesonet | 52 | 51 | 98 | 29.81 | 0.00 | 7 | N | 16 | N |
| Oswego Lake | NJ | 2026-05-07 01:50 | Mesonet | 60 | 55 | 85 | 29.78 | 0.00 | 6 | NNE | 12 | N |
| Oswego Lake | NJ | 2026-05-07 01:40 | Mesonet | 61 | 55 | 83 | 29.78 | 0.00 | 6 | NNW | 13 | N |
| Oswego Lake | NJ | 2026-05-06 22:45 | Mesonet | 65 | 61 | 89 | 29.77 | 0.00 | 4 | SSW | 4 | SSW |
| Oswego Lake | NJ | 2026-05-06 23:25 | Mesonet | 65 | 61 | 89 | 29.77 | 0.00 | 3 | WSW | 5 | WSW |
| Oswego Lake | NJ | 2026-05-06 23:55 | Mesonet | 66 | 61 | 86 | 29.77 | 0.00 | 2 | SW | 6 | SW |
| Oswego Lake | NJ | 2026-05-06 23:50 | Mesonet | 66 | 61 | 86 | 29.77 | 0.00 | 3 | W | 10 | WSW |
| Oswego Lake | NJ | 2026-05-06 23:45 | Mesonet | 65 | 61 | 87 | 29.77 | 0.00 | 5 | WSW | 7 | WSW |
| Oswego Lake | NJ | 2026-05-06 23:40 | Mesonet | 65 | 61 | 87 | 29.76 | 0.00 | 3 | SW | 7 | WSW |
| Oswego Lake | NJ | 2026-05-06 23:35 | Mesonet | 65 | 61 | 87 | 29.76 | 0.00 | 5 | SW | 6 | WSW |
| Oswego Lake | NJ | 2026-05-06 23:30 | Mesonet | 65 | 61 | 88 | 29.76 | 0.00 | 4 | W | 6 | SW |
| Oswego Lake | NJ | 2026-05-06 23:20 | Mesonet | 64 | 61 | 90 | 29.76 | 0.00 | 4 | SW | 5 | W |
| Oswego Lake | NJ | 2026-05-07 00:05 | Mesonet | 65 | 61 | 87 | 29.77 | 0.00 | 3 | SW | 5 | W |
| Oswego Lake | NJ | 2026-05-06 23:15 | Mesonet | 64 | 61 | 90 | 29.77 | 0.00 | 2 | SW | 5 | WSW |
| Oswego Lake | NJ | 2026-05-06 23:10 | Mesonet | 64 | 61 | 89 | 29.77 | 0.00 | 2 | WSW | 4 | WSW |
| Oswego Lake | NJ | 2026-05-06 23:05 | Mesonet | 64 | 61 | 89 | 29.77 | 0.00 | 3 | SW | 4 | SW |
| Oswego Lake | NJ | 2026-05-06 23:00 | Mesonet | 65 | 61 | 88 | 29.77 | 0.00 | 3 | SW | 5 | SSW |
| Oswego Lake | NJ | 2026-05-06 22:55 | Mesonet | 65 | 61 | 88 | 29.77 | 0.00 | 4 | SSW | 5 | SSW |
| Oswego Lake | NJ | 2026-05-06 22:50 | Mesonet | 65 | 61 | 88 | 29.77 | 0.00 | 4 | SW | 5 | S |
| Oswego Lake | NJ | 2026-05-07 00:00 | Mesonet | 65 | 61 | 87 | 29.77 | 0.00 | 2 | WSW | 5 | W |
| Oswego Lake | NJ | 2026-05-07 00:10 | Mesonet | 65 | 61 | 87 | 29.77 | 0.00 | 3 | WSW | 6 | WSW |
| Oswego Lake | NJ | 2026-05-07 01:35 | Mesonet | 62 | 57 | 83 | 29.78 | 0.00 | 11 | E | 17 | NNE |
| Oswego Lake | NJ | 2026-05-07 01:00 | Mesonet | 65 | 62 | 87 | 29.76 | 0.00 | 2 | W | 5 | WSW |
| Oswego Lake | NJ | 2026-05-07 01:30 | Mesonet | 65 | 61 | 88 | 29.77 | 0.00 | 6 | NNW | 10 | NNW |
| Oswego Lake | NJ | 2026-05-07 01:25 | Mesonet | 65 | 61 | 88 | 29.76 | 0.00 | 2 | NNW | 4 | NW |
| Oswego Lake | NJ | 2026-05-07 01:20 | Mesonet | 65 | 62 | 88 | 29.77 | 0.00 | 1 | W | 4 | WNW |
| Oswego Lake | NJ | 2026-05-07 01:15 | Mesonet | 65 | 62 | 88 | 29.77 | 0.00 | 1 | NW | 5 | WSW |
| Oswego Lake | NJ | 2026-05-07 01:10 | Mesonet | 65 | 62 | 88 | 29.76 | 0.00 | 3 | W | 5 | WSW |
| Oswego Lake | NJ | 2026-05-07 01:05 | Mesonet | 65 | 61 | 87 | 29.76 | 0.00 | 2 | SW | 5 | WNW |
| Oswego Lake | NJ | 2026-05-07 00:55 | Mesonet | 65 | 61 | 87 | 29.77 | 0.00 | 6 | WSW | 7 | WSW |
| Oswego Lake | NJ | 2026-05-07 00:15 | Mesonet | 65 | 61 | 87 | 29.76 | 0.00 | 5 | WSW | 8 | SW |
| Oswego Lake | NJ | 2026-05-07 00:50 | Mesonet | 65 | 61 | 87 | 29.76 | 0.00 | 3 | WSW | 6 | SW |
| Oswego Lake | NJ | 2026-05-07 00:45 | Mesonet | 65 | 61 | 87 | 29.77 | 0.00 | 4 | WSW | 7 | SW |
| Oswego Lake | NJ | 2026-05-07 00:40 | Mesonet | 65 | 61 | 87 | 29.77 | 0.00 | 4 | SW | 4 | SW |
| Oswego Lake | NJ | 2026-05-07 00:35 | Mesonet | 65 | 61 | 88 | 29.77 | 0.00 | 4 | WSW | 5 | WSW |
| Oswego Lake | NJ | 2026-05-07 00:30 | Mesonet | 65 | 61 | 88 | 29.77 | 0.00 | 2 | WSW | 5 | WSW |
| Oswego Lake | NJ | 2026-05-07 00:25 | Mesonet | 65 | 61 | 87 | 29.77 | 0.00 | 4 | SW | 6 | SW |
| Oswego Lake | NJ | 2026-05-07 00:20 | Mesonet | 65 | 61 | 87 | 29.77 | 0.00 | 4 | WNW | 7 | WSW |
| Oswego Lake | NJ | 2026-05-06 16:45 | Mesonet | 71 | 60 | 69 | 29.73 | 0.00 | 21 | WSW | 21 | WSW |
| Oswego Lake | NJ | 2026-05-06 16:35 | Mesonet | 72 | 60 | 67 | 29.73 | 0.00 | 11 | W | 16 | WSW |
| Oswego Lake | NJ | 2026-05-06 04:40 | Mesonet | 60 | 57 | 89 | 29.86 | 0.00 | 6 | SSW | 11 | SSW |
| Oswego Lake | NJ | 2026-05-06 08:20 | Mesonet | 67 | 57 | 71 | 29.85 | 0.00 | 6 | SW | 18 | SSW |
| Oswego Lake | NJ | 2026-05-06 08:50 | Mesonet | 70 | 57 | 64 | 29.84 | 0.00 | 16 | S | 16 | S |
| Oswego Lake | NJ | 2026-05-06 08:45 | Mesonet | 69 | 57 | 64 | 29.84 | 0.00 | 11 | SSW | 16 | SSW |
| Oswego Lake | NJ | 2026-05-06 08:40 | Mesonet | 69 | 57 | 66 | 29.84 | 0.00 | 12 | SW | 16 | SW |
| Oswego Lake | NJ | 2026-05-06 08:35 | Mesonet | 68 | 57 | 67 | 29.85 | 0.00 | 7 | WSW | 16 | S |
| Oswego Lake | NJ | 2026-05-06 08:30 | Mesonet | 68 | 57 | 68 | 29.85 | 0.00 | 14 | S | 16 | S |
| Oswego Lake | NJ | 2026-05-06 08:25 | Mesonet | 68 | 57 | 69 | 29.85 | 0.00 | 10 | S | 16 | S |
| Oswego Lake | NJ | 2026-05-06 08:15 | Mesonet | 66 | 56 | 70 | 29.85 | 0.00 | 7 | SSW | 19 | SSW |
| Oswego Lake | NJ | 2026-05-06 09:00 | Mesonet | 70 | 56 | 61 | 29.84 | 0.00 | 17 | SW | 22 | SSW |
| Oswego Lake | NJ | 2026-05-06 08:10 | Mesonet | 67 | 57 | 70 | 29.85 | 0.00 | 13 | SW | 18 | SW |
| Oswego Lake | NJ | 2026-05-06 08:05 | Mesonet | 67 | 57 | 71 | 29.85 | 0.00 | 12 | SW | 18 | SW |
| Oswego Lake | NJ | 2026-05-06 08:00 | Mesonet | 66 | 57 | 72 | 29.85 | 0.00 | 10 | SSW | 18 | SSW |
| Oswego Lake | NJ | 2026-05-06 07:55 | Mesonet | 65 | 57 | 73 | 29.85 | 0.00 | 7 | SW | 18 | SW |
| Oswego Lake | NJ | 2026-05-06 07:50 | Mesonet | 65 | 56 | 74 | 29.85 | 0.00 | 16 | SSW | 16 | SSW |
| Oswego Lake | NJ | 2026-05-06 07:45 | Mesonet | 64 | 57 | 76 | 29.85 | 0.00 | 9 | SSW | 16 | SSW |
| Oswego Lake | NJ | 2026-05-06 08:55 | Mesonet | 70 | 57 | 62 | 29.85 | 0.00 | 14 | SW | 21 | SSW |
| Oswego Lake | NJ | 2026-05-06 09:05 | Mesonet | 71 | 56 | 60 | 29.84 | 0.00 | 20 | SW | 28 | S |
| Oswego Lake | NJ | 2026-05-06 07:35 | Mesonet | 64 | 57 | 77 | 29.85 | 0.00 | 6 | S | 16 | SW |
| Oswego Lake | NJ | 2026-05-06 09:50 | Mesonet | 71 | 55 | 58 | 29.82 | 0.00 | 17 | SSW | 24 | SW |
| Oswego Lake | NJ | 2026-05-06 10:20 | Mesonet | 73 | 56 | 56 | 29.83 | 0.00 | 21 | SW | 23 | WSW |
| Oswego Lake | NJ | 2026-05-06 10:15 | Mesonet | 72 | 55 | 57 | 29.83 | 0.00 | 22 | WSW | 28 | SSW |
| Oswego Lake | NJ | 2026-05-06 10:10 | Mesonet | 71 | 56 | 58 | 29.83 | 0.00 | 10 | S | 16 | SW |
| Oswego Lake | NJ | 2026-05-06 10:05 | Mesonet | 71 | 55 | 58 | 29.83 | 0.00 | 13 | SSW | 16 | SSW |
| Oswego Lake | NJ | 2026-05-06 10:00 | Mesonet | 71 | 55 | 58 | 29.83 | 0.00 | 11 | SSW | 21 | S |
| Oswego Lake | NJ | 2026-05-06 09:55 | Mesonet | 70 | 55 | 58 | 29.83 | 0.00 | 11 | SSW | 26 | SW |
| Oswego Lake | NJ | 2026-05-06 09:45 | Mesonet | 71 | 55 | 57 | 29.83 | 0.00 | 15 | SSW | 28 | SSW |
| Oswego Lake | NJ | 2026-05-06 09:10 | Mesonet | 71 | 56 | 60 | 29.85 | 0.00 | 15 | SSW | 25 | SSW |
| Oswego Lake | NJ | 2026-05-06 09:40 | Mesonet | 72 | 56 | 57 | 29.83 | 0.00 | 13 | SW | 24 | SSW |
| Oswego Lake | NJ | 2026-05-06 09:35 | Mesonet | 72 | 56 | 57 | 29.83 | 0.00 | 17 | S | 26 | SSW |
| Oswego Lake | NJ | 2026-05-06 09:30 | Mesonet | 72 | 56 | 57 | 29.83 | 0.00 | 13 | SSW | 27 | SW |
| Oswego Lake | NJ | 2026-05-06 09:25 | Mesonet | 71 | 56 | 58 | 29.83 | 0.00 | 25 | SW | 25 | SW |
| Oswego Lake | NJ | 2026-05-06 09:20 | Mesonet | 71 | 56 | 59 | 29.84 | 0.00 | 12 | SSW | 23 | SW |
| Oswego Lake | NJ | 2026-05-06 09:15 | Mesonet | 71 | 56 | 59 | 29.85 | 0.00 | 13 | WSW | 21 | SSW |
| Oswego Lake | NJ | 2026-05-06 07:40 | Mesonet | 64 | 57 | 76 | 29.85 | 0.00 | 12 | SSW | 16 | SW |
| Oswego Lake | NJ | 2026-05-06 07:30 | Mesonet | 64 | 57 | 78 | 29.85 | 0.00 | 9 | SSW | 14 | SSW |
| Oswego Lake | NJ | 2026-05-06 10:30 | Mesonet | 71 | 55 | 56 | 29.83 | 0.00 | 13 | SSW | 29 | W |
| Oswego Lake | NJ | 2026-05-06 05:20 | Mesonet | 60 | 57 | 88 | 29.85 | 0.00 | 4 | S | 11 | S |
| Oswego Lake | NJ | 2026-05-06 05:50 | Mesonet | 60 | 56 | 88 | 29.84 | 0.00 | 6 | SSW | 9 | S |
| Oswego Lake | NJ | 2026-05-06 05:45 | Mesonet | 60 | 57 | 89 | 29.84 | 0.00 | 7 | S | 15 | S |
| Oswego Lake | NJ | 2026-05-06 05:40 | Mesonet | 60 | 57 | 89 | 29.84 | 0.00 | 9 | SSW | 11 | SW |
| Oswego Lake | NJ | 2026-05-06 05:35 | Mesonet | 60 | 57 | 89 | 29.84 | 0.00 | 6 | S | 12 | S |
| Oswego Lake | NJ | 2026-05-06 05:30 | Mesonet | 60 | 57 | 89 | 29.84 | 0.00 | 6 | SSW | 12 | SSE |
| Oswego Lake | NJ | 2026-05-06 05:25 | Mesonet | 60 | 57 | 89 | 29.84 | 0.00 | 8 | S | 11 | SSW |
| Oswego Lake | NJ | 2026-05-06 05:15 | Mesonet | 60 | 57 | 89 | 29.84 | 0.00 | 7 | SW | 13 | SSW |
| Oswego Lake | NJ | 2026-05-06 06:00 | Mesonet | 60 | 56 | 89 | 29.85 | 0.00 | 9 | SSW | 12 | SSW |
| Oswego Lake | NJ | 2026-05-06 05:10 | Mesonet | 60 | 57 | 89 | 29.85 | 0.00 | 8 | WSW | 10 | SSW |
| Oswego Lake | NJ | 2026-05-06 05:05 | Mesonet | 60 | 57 | 89 | 29.85 | 0.00 | 4 | SSE | 11 | SSW |
| Oswego Lake | NJ | 2026-05-06 05:00 | Mesonet | 60 | 57 | 89 | 29.85 | 0.00 | 9 | S | 11 | SSW |
| Oswego Lake | NJ | 2026-05-06 04:55 | Mesonet | 60 | 57 | 89 | 29.85 | 0.00 | 8 | SSW | 10 | S |
| Oswego Lake | NJ | 2026-05-06 04:50 | Mesonet | 60 | 57 | 89 | 29.85 | 0.00 | 5 | S | 12 | SSW |
| Oswego Lake | NJ | 2026-05-06 04:45 | Mesonet | 60 | 57 | 89 | 29.85 | 0.00 | 11 | SW | 12 | SSW |
| Oswego Lake | NJ | 2026-05-06 05:55 | Mesonet | 60 | 56 | 89 | 29.84 | 0.00 | 9 | SSW | 11 | SSW |
| Oswego Lake | NJ | 2026-05-06 06:05 | Mesonet | 60 | 56 | 88 | 29.85 | 0.00 | 6 | SSW | 11 | SSW |
| Oswego Lake | NJ | 2026-05-06 07:25 | Mesonet | 63 | 56 | 78 | 29.85 | 0.00 | 6 | SW | 18 | SSW |
| Oswego Lake | NJ | 2026-05-06 06:50 | Mesonet | 61 | 56 | 84 | 29.85 | 0.00 | 7 | SSW | 15 | SSW |
| Oswego Lake | NJ | 2026-05-06 07:20 | Mesonet | 63 | 57 | 80 | 29.85 | 0.00 | 8 | SSW | 12 | SSW |
| Oswego Lake | NJ | 2026-05-06 07:15 | Mesonet | 62 | 56 | 81 | 29.85 | 0.00 | 11 | SSW | 17 | SSW |
| Oswego Lake | NJ | 2026-05-06 07:10 | Mesonet | 62 | 56 | 81 | 29.85 | 0.00 | 8 | SSW | 17 | S |
| Oswego Lake | NJ | 2026-05-06 07:05 | Mesonet | 62 | 56 | 81 | 29.85 | 0.00 | 7 | S | 17 | SSW |
| Oswego Lake | NJ | 2026-05-06 07:00 | Mesonet | 62 | 56 | 82 | 29.85 | 0.00 | 7 | SSW | 17 | SSW |
| Oswego Lake | NJ | 2026-05-06 06:55 | Mesonet | 62 | 56 | 83 | 29.85 | 0.00 | 10 | S | 15 | S |
| Oswego Lake | NJ | 2026-05-06 06:45 | Mesonet | 61 | 56 | 85 | 29.85 | 0.00 | 8 | SSE | 14 | S |
| Oswego Lake | NJ | 2026-05-06 06:10 | Mesonet | 60 | 56 | 88 | 29.85 | 0.00 | 7 | S | 11 | SSW |
| Oswego Lake | NJ | 2026-05-06 06:40 | Mesonet | 61 | 56 | 85 | 29.85 | 0.00 | 3 | SW | 12 | S |
| Oswego Lake | NJ | 2026-05-06 06:35 | Mesonet | 61 | 56 | 86 | 29.85 | 0.00 | 4 | SSW | 11 | SW |
| Oswego Lake | NJ | 2026-05-06 06:30 | Mesonet | 60 | 56 | 86 | 29.85 | 0.00 | 4 | S | 11 | SSW |
| Oswego Lake | NJ | 2026-05-06 06:25 | Mesonet | 60 | 56 | 87 | 29.85 | 0.00 | 7 | SSW | 11 | WSW |
| Oswego Lake | NJ | 2026-05-06 06:20 | Mesonet | 60 | 56 | 87 | 29.85 | 0.00 | 7 | SSW | 14 | SSW |
| Oswego Lake | NJ | 2026-05-06 06:15 | Mesonet | 60 | 56 | 87 | 29.85 | 0.00 | 4 | S | 11 | S |
| Oswego Lake | NJ | 2026-05-06 10:25 | Mesonet | 72 | 55 | 56 | 29.83 | 0.00 | 16 | SW | 25 | SW |
| Oswego Lake | NJ | 2026-05-06 10:35 | Mesonet | 71 | 55 | 56 | 29.83 | 0.00 | 10 | S | 26 | SW |
| Oswego Lake | NJ | 2026-05-06 16:30 | Mesonet | 70 | 60 | 71 | 29.74 | 0.00 | 9 | WSW | 18 | WSW |
| Oswego Lake | NJ | 2026-05-06 14:25 | Mesonet | 66 | 60 | 82 | 29.78 | 0.00 | 18 | SW | 24 | WSW |
| Oswego Lake | NJ | 2026-05-06 14:55 | Mesonet | 67 | 61 | 82 | 29.77 | 0.00 | 10 | SSW | 17 | SW |
| Oswego Lake | NJ | 2026-05-06 14:50 | Mesonet | 66 | 61 | 82 | 29.77 | 0.00 | 13 | SW | 18 | SSW |
| Oswego Lake | NJ | 2026-05-06 14:45 | Mesonet | 66 | 61 | 83 | 29.77 | 0.00 | 7 | SSW | 20 | SW |
| Oswego Lake | NJ | 2026-05-06 14:40 | Mesonet | 66 | 60 | 82 | 29.77 | 0.00 | 14 | SSW | 21 | SW |
| Oswego Lake | NJ | 2026-05-06 14:35 | Mesonet | 66 | 60 | 82 | 29.78 | 0.00 | 10 | S | 24 | SSW |
| Oswego Lake | NJ | 2026-05-06 14:30 | Mesonet | 66 | 60 | 82 | 29.78 | 0.00 | 6 | SSW | 23 | SSW |
| Oswego Lake | NJ | 2026-05-06 14:20 | Mesonet | 65 | 60 | 82 | 29.78 | 0.00 | 14 | SW | 23 | SSW |
| Oswego Lake | NJ | 2026-05-06 15:05 | Mesonet | 67 | 61 | 82 | 29.76 | 0.00 | 9 | WSW | 19 | SSW |
| Oswego Lake | NJ | 2026-05-06 14:15 | Mesonet | 65 | 60 | 83 | 29.78 | 0.00 | 7 | SW | 17 | SW |
| Oswego Lake | NJ | 2026-05-06 14:10 | Mesonet | 65 | 60 | 85 | 29.78 | 0.00 | 14 | SSW | 18 | SSW |
| Oswego Lake | NJ | 2026-05-06 14:05 | Mesonet | 65 | 60 | 84 | 29.78 | 0.00 | 9 | SSW | 26 | WSW |
| Oswego Lake | NJ | 2026-05-06 14:00 | Mesonet | 67 | 59 | 77 | 29.78 | 0.00 | 16 | SW | 31 | SSW |
| Oswego Lake | NJ | 2026-05-06 13:55 | Mesonet | 68 | 58 | 70 | 29.78 | 0.00 | 23 | SSW | 30 | SW |
| Oswego Lake | NJ | 2026-05-06 13:50 | Mesonet | 70 | 58 | 66 | 29.77 | 0.00 | 18 | S | 24 | SW |
| Oswego Lake | NJ | 2026-05-06 15:00 | Mesonet | 67 | 61 | 82 | 29.77 | 0.00 | 9 | SSW | 16 | SSW |
| Oswego Lake | NJ | 2026-05-06 15:10 | Mesonet | 67 | 61 | 81 | 29.76 | 0.00 | 8 | SW | 16 | SSE |
| Oswego Lake | NJ | 2026-05-06 13:40 | Mesonet | 70 | 58 | 64 | 29.78 | 0.00 | 21 | WSW | 30 | SW |
| Oswego Lake | NJ | 2026-05-06 15:55 | Mesonet | 69 | 61 | 75 | 29.74 | 0.00 | 12 | WSW | 18 | WSW |
| Oswego Lake | NJ | 2026-05-06 16:25 | Mesonet | 70 | 60 | 71 | 29.74 | 0.00 | 12 | WSW | 19 | WSW |
| Oswego Lake | NJ | 2026-05-06 16:20 | Mesonet | 70 | 60 | 72 | 29.74 | 0.00 | 13 | SW | 19 | WSW |
| Oswego Lake | NJ | 2026-05-06 16:15 | Mesonet | 70 | 61 | 72 | 29.74 | 0.00 | 8 | SW | 15 | SW |
| Oswego Lake | NJ | 2026-05-06 16:10 | Mesonet | 69 | 60 | 72 | 29.74 | 0.00 | 6 | SSW | 21 | WSW |
| Oswego Lake | NJ | 2026-05-06 16:05 | Mesonet | 69 | 60 | 74 | 29.74 | 0.00 | 12 | SSW | 21 | SW |
| Oswego Lake | NJ | 2026-05-06 16:00 | Mesonet | 69 | 60 | 74 | 29.74 | 0.00 | 12 | SW | 15 | SW |
| Oswego Lake | NJ | 2026-05-06 15:50 | Mesonet | 68 | 60 | 75 | 29.75 | 0.00 | 18 | SSW | 27 | WSW |
| Oswego Lake | NJ | 2026-05-06 15:15 | Mesonet | 67 | 61 | 81 | 29.76 | 0.00 | 11 | WSW | 18 | WSW |
| Oswego Lake | NJ | 2026-05-06 15:45 | Mesonet | 68 | 60 | 76 | 29.75 | 0.00 | 16 | WSW | 19 | SSW |
| Oswego Lake | NJ | 2026-05-06 15:40 | Mesonet | 68 | 61 | 77 | 29.76 | 0.00 | 14 | SW | 18 | SSW |
| Oswego Lake | NJ | 2026-05-06 15:35 | Mesonet | 68 | 61 | 78 | 29.76 | 0.00 | 18 | SSW | 20 | SSW |
| Oswego Lake | NJ | 2026-05-06 15:30 | Mesonet | 67 | 61 | 79 | 29.75 | 0.00 | 22 | SW | 22 | SW |
| Oswego Lake | NJ | 2026-05-06 15:25 | Mesonet | 67 | 61 | 80 | 29.76 | 0.00 | 13 | SSW | 20 | SSW |
| Oswego Lake | NJ | 2026-05-06 15:20 | Mesonet | 67 | 61 | 81 | 29.76 | 0.00 | 16 | SW | 19 | SW |
| Oswego Lake | NJ | 2026-05-06 13:45 | Mesonet | 70 | 58 | 64 | 29.78 | 0.00 | 21 | WSW | 28 | W |
| Oswego Lake | NJ | 2026-05-06 13:35 | Mesonet | 70 | 58 | 65 | 29.78 | 0.00 | 15 | SW | 24 | SSW |
| Oswego Lake | NJ | 2026-05-06 10:40 | Mesonet | 71 | 55 | 57 | 29.83 | 0.00 | 13 | SW | 27 | SSW |
| Oswego Lake | NJ | 2026-05-06 11:20 | Mesonet | 73 | 56 | 55 | 29.82 | 0.00 | 8 | SSW | 23 | S |
| Oswego Lake | NJ | 2026-05-06 11:50 | Mesonet | 72 | 56 | 58 | 29.82 | 0.00 | 12 | SW | 23 | SSW |
| Oswego Lake | NJ | 2026-05-06 11:45 | Mesonet | 72 | 56 | 57 | 29.81 | 0.00 | 27 | SSW | 31 | SSW |
| Oswego Lake | NJ | 2026-05-06 11:40 | Mesonet | 72 | 56 | 56 | 29.82 | 0.00 | 16 | SW | 28 | SW |
| Oswego Lake | NJ | 2026-05-06 11:35 | Mesonet | 72 | 56 | 56 | 29.82 | 0.00 | 22 | SSW | 25 | SW |
| Oswego Lake | NJ | 2026-05-06 11:30 | Mesonet | 73 | 56 | 55 | 29.82 | 0.00 | 17 | SW | 25 | SW |
| Oswego Lake | NJ | 2026-05-06 11:25 | Mesonet | 73 | 55 | 55 | 29.81 | 0.00 | 21 | WSW | 31 | SW |
| Oswego Lake | NJ | 2026-05-06 11:15 | Mesonet | 73 | 56 | 55 | 29.81 | 0.00 | 15 | S | 21 | SSW |
| Oswego Lake | NJ | 2026-05-06 12:00 | Mesonet | 72 | 56 | 58 | 29.82 | 0.00 | 19 | SW | 27 | SW |
| Oswego Lake | NJ | 2026-05-06 11:10 | Mesonet | 73 | 56 | 55 | 29.82 | 0.00 | 13 | SSW | 26 | SSW |
| Oswego Lake | NJ | 2026-05-06 11:05 | Mesonet | 74 | 56 | 54 | 29.82 | 0.00 | 20 | SSW | 21 | SW |
| Oswego Lake | NJ | 2026-05-06 11:00 | Mesonet | 73 | 56 | 56 | 29.82 | 0.00 | 9 | WSW | 25 | S |
| Oswego Lake | NJ | 2026-05-06 10:55 | Mesonet | 71 | 55 | 57 | 29.82 | 0.00 | 13 | SSW | 24 | SW |
| Oswego Lake | NJ | 2026-05-06 10:50 | Mesonet | 71 | 55 | 57 | 29.82 | 0.00 | 15 | SW | 30 | SW |
| Oswego Lake | NJ | 2026-05-06 10:45 | Mesonet | 71 | 55 | 57 | 29.82 | 0.00 | 22 | SW | 36 | WSW |
| Oswego Lake | NJ | 2026-05-06 11:55 | Mesonet | 72 | 56 | 58 | 29.82 | 0.00 | 23 | WSW | 26 | S |
| Oswego Lake | NJ | 2026-05-06 12:05 | Mesonet | 72 | 56 | 58 | 29.82 | 0.00 | 12 | SW | 24 | SW |
| Oswego Lake | NJ | 2026-05-06 13:30 | Mesonet | 70 | 59 | 68 | 29.78 | 0.00 | 10 | W | 20 | S |
| Oswego Lake | NJ | 2026-05-06 12:55 | Mesonet | 72 | 59 | 64 | 29.79 | 0.00 | 4 | WSW | 13 | SSW |
| Oswego Lake | NJ | 2026-05-06 13:25 | Mesonet | 71 | 60 | 69 | 29.78 | 0.00 | 8 | SW | 15 | SSW |
| Oswego Lake | NJ | 2026-05-06 13:20 | Mesonet | 71 | 60 | 67 | 29.78 | 0.00 | 16 | SSW | 17 | SSW |
| Oswego Lake | NJ | 2026-05-06 13:15 | Mesonet | 72 | 60 | 67 | 29.78 | 0.00 | 12 | SW | 16 | SSW |
| Oswego Lake | NJ | 2026-05-06 13:10 | Mesonet | 72 | 60 | 66 | 29.78 | 0.00 | 8 | SSW | 16 | SSW |
| Oswego Lake | NJ | 2026-05-06 13:05 | Mesonet | 72 | 59 | 65 | 29.78 | 0.00 | 12 | SW | 16 | SSW |
| Oswego Lake | NJ | 2026-05-06 13:00 | Mesonet | 72 | 60 | 65 | 29.79 | 0.00 | 10 | SW | 15 | S |
| Oswego Lake | NJ | 2026-05-06 12:50 | Mesonet | 72 | 58 | 61 | 29.79 | 0.00 | 11 | S | 20 | SSW |
| Oswego Lake | NJ | 2026-05-06 12:10 | Mesonet | 72 | 57 | 59 | 29.82 | 0.00 | 14 | SW | 22 | SSW |
| Oswego Lake | NJ | 2026-05-06 12:45 | Mesonet | 71 | 57 | 61 | 29.80 | 0.00 | 7 | SW | 19 | SSW |
| Oswego Lake | NJ | 2026-05-06 12:40 | Mesonet | 71 | 57 | 61 | 29.80 | 0.00 | 20 | WSW | 22 | SSW |
| Oswego Lake | NJ | 2026-05-06 12:35 | Mesonet | 72 | 57 | 61 | 29.80 | 0.00 | 12 | SW | 21 | SW |
| Oswego Lake | NJ | 2026-05-06 12:30 | Mesonet | 72 | 57 | 61 | 29.80 | 0.00 | 9 | SSW | 21 | SW |
| Oswego Lake | NJ | 2026-05-06 12:25 | Mesonet | 72 | 58 | 61 | 29.81 | 0.00 | 8 | SW | 24 | SW |
| Oswego Lake | NJ | 2026-05-06 12:20 | Mesonet | 72 | 57 | 60 | 29.82 | 0.00 | 13 | SSW | 20 | SSW |
| Oswego Lake | NJ | 2026-05-06 12:15 | Mesonet | 72 | 57 | 59 | 29.82 | 0.00 | 12 | SSW | 21 | SW |
| Oswego Lake | NJ | 2026-05-07 04:35 | Mesonet | 51 | 50 | 97 | 29.81 | 0.00 | 7 | NNW | 10 | N |
data collection created in 0.070359945297241 (queried in 0.021388) rendered in: 0.00074291229248047

